Data for 12/03/2013

Time Sea-Level Adjusted Pressure Absolute Pressure Temperature Relative Humidity Dew Point   
(mb) (inHg) (mb) (inHg) (C) (F) (%) (C) (F)
00:05 1009 29.8 839 24.78 -10.6 12.9 89 -12 10.3
00:10 1010 29.83 839 24.78 -10.7 12.7 90 -12.1 10.2
00:15 1010 29.83 839 24.78 -10.8 12.6 89 -12.2 10
00:20 1010 29.83 839 24.78 -10.9 12.5 90 -12.2 10.1
00:25 1010 29.83 839 24.78 -10.9 12.5 89 -12.3 9.9
00:30 1010 29.83 839 24.78 -11 12.3 90 -12.3 9.8
00:35 1010 29.83 839 24.78 -11 12.2 90 -12.4 9.7
00:40 1010 29.83 839 24.78 -11.1 12 89 -12.5 9.4
00:45 1010 29.83 839 24.78 -11.3 11.6 89 -12.8 8.9
00:50 1010 29.83 839 24.78 -11.5 11.3 89 -13 8.6
00:55 1010 29.83 840 24.81 -11.6 11 89 -13.1 8.5
01:00 1010 29.83 840 24.81 -11.7 10.9 89 -13.3 8.1
01:05 1010 29.83 840 24.81 -11.9 10.6 89 -13.4 7.9
01:10 1010 29.83 840 24.81 -12 10.5 89 -13.4 7.9
01:15 1011 29.85 840 24.81 -12 10.5 89 -13.4 7.9
01:20 1011 29.85 840 24.81 -12 10.4 89 -13.5 7.7
01:25 1011 29.85 840 24.81 -12.1 10.3 89 -13.5 7.6
01:30 1011 29.85 840 24.81 -12.1 10.3 89 -13.5 7.6
01:35 1011 29.85 840 24.81 -12 10.3 89 -13.4 7.8
01:40 1011 29.85 840 24.81 -12 10.4 90 -13.4 7.9
01:45 1011 29.85 840 24.81 -11.9 10.5 89 -13.3 8
01:50 1011 29.85 840 24.81 -11.9 10.6 89 -13.4 8
01:55 1011 29.85 840 24.81 -12 10.4 88 -13.6 7.5
02:00 1011 29.85 840 24.81 -12.1 10.2 88 -13.7 7.4
02:05 1011 29.85 840 24.81 -12.3 9.9 88 -13.9 7
02:10 1011 29.85 840 24.81 -12.4 9.8 89 -13.9 7
02:15 1011 29.85 840 24.81 -12.5 9.5 88 -14.1 6.6
02:20 1011 29.85 840 24.81 -12.7 9.1 88 -14.4 6.2
02:25 1011 29.85 840 24.81 -12.9 8.9 88 -14.5 5.9
02:30 1011 29.85 840 24.81 -13 8.7 88 -14.6 5.7
02:35 1011 29.85 840 24.81 -13.2 8.3 87 -14.8 5.3
02:40 1011 29.85 841 24.83 -13.3 8 88 -15 5
02:45 1012 29.88 841 24.83 -13.4 7.8 88 -15.1 4.9
02:50 1012 29.88 841 24.83 -13.5 7.6 87 -15.2 4.6
02:55 1012 29.88 841 24.83 -13.7 7.4 88 -15.3 4.5
03:00 1012 29.88 841 24.83 -13.7 7.4 88 -15.3 4.5
03:05 1012 29.88 841 24.83 -13.8 7.2 87 -15.5 4.1
03:10 1012 29.88 841 24.83 -13.9 7 88 -15.5 4
03:15 1012 29.88 841 24.83 -13.9 6.9 88 -15.5 4.1
03:20 1012 29.88 841 24.83 -14 6.9 87 -15.7 3.8
03:25 1012 29.88 841 24.83 -14.1 6.6 87 -15.9 3.4
03:30 1012 29.88 841 24.83 -14.3 6.3 87 -16.1 3.1
03:35 1012 29.88 841 24.83 -14.4 6.1 87 -16.1 3
03:40 1012 29.88 841 24.83 -14.4 6 87 -16.1 2.9
03:45 1012 29.88 841 24.83 -14.4 6 87 -16.1 2.9
03:50 1012 29.88 841 24.83 -14.4 6 88 -16.1 3.1
03:55 1012 29.88 841 24.83 -14.4 6.2 87 -16 3.2
04:00 1012 29.88 841 24.83 -14.4 6.1 87 -16.1 3.1
04:05 1012 29.88 841 24.83 -14.5 6 87 -16.1 2.9
04:10 1012 29.88 841 24.83 -14.4 6 87 -16.1 3
04:15 1012 29.88 841 24.83 -14.5 5.9 87 -16.1 2.9
04:20 1012 29.88 841 24.83 -14.4 6 88 -16 3.1
04:25 1012 29.88 841 24.83 -14.3 6.3 87 -16 3.3
04:30 1012 29.88 842 24.86 -14.4 6.2 87 -16.1 2.9
04:35 1013 29.91 842 24.86 -14.6 5.8 86 -16.4 2.5
04:40 1012 29.88 842 24.86 -14.7 5.5 86 -16.6 2.2
04:45 1013 29.91 842 24.86 -14.9 5.2 86 -16.7 1.9
04:50 1013 29.91 842 24.86 -15.1 4.9 86 -16.8 1.7
04:55 1013 29.91 842 24.86 -15.1 4.8 86 -16.9 1.5
05:00 1013 29.91 842 24.86 -15.2 4.6 86 -17.1 1.2
05:05 1013 29.91 842 24.86 -15.3 4.5 86 -17.1 1.3
05:10 1013 29.91 842 24.86 -15.3 4.5 87 -17 1.3
05:15 1013 29.91 842 24.86 -15.3 4.5 87 -17 1.3
05:20 1013 29.91 842 24.86 -15.2 4.6 87 -17 1.5
05:25 1013 29.91 842 24.86 -15.2 4.7 87 -16.9 1.5
05:30 1013 29.91 842 24.86 -15.1 4.8 87 -16.9 1.6
05:35 1013 29.91 842 24.86 -15 4.9 86 -16.8 1.7
05:40 1013 29.91 842 24.86 -15.2 4.7 86 -17 1.4
05:45 1013 29.91 842 24.86 -15.3 4.5 86 -17.1 1.3
05:50 1013 29.91 842 24.86 -15.2 4.6 86 -17 1.4
05:55 1013 29.91 842 24.86 -15.2 4.6 87 -17 1.4
06:00 1013 29.91 842 24.86 -15.2 4.7 86 -17 1.5
06:05 1013 29.91 842 24.86 -15.3 4.6 86 -17 1.3
06:10 1013 29.91 842 24.86 -15.2 4.6 86 -17 1.4
06:15 1013 29.91 842 24.86 -15.3 4.6 87 -17 1.4
06:20 1013 29.91 842 24.86 -15.3 4.6 86 -17 1.3
06:25 1013 29.91 842 24.86 -15.3 4.4 86 -17.2 1.1
06:30 1013 29.91 842 24.86 -15.4 4.3 86 -17.2 1.1
06:35 1013 29.91 843 24.89 -15.4 4.4 86 -17.2 1.1
06:40 1013 29.91 843 24.89 -15.3 4.4 86 -17.1 1.1
06:45 1013 29.91 843 24.89 -15.4 4.3 86 -17.2 1
06:50 1013 29.91 843 24.89 -15.5 4.2 86 -17.3 0.8
06:55 1014 29.94 843 24.89 -15.5 4.1 86 -17.3 0.8
07:00 1014 29.94 843 24.89 -15.5 4.1 86 -17.3 0.8
07:05 1014 29.94 843 24.89 -15.5 4.1 86 -17.4 0.8
07:10 1014 29.94 843 24.89 -15.5 4.1 86 -17.3 0.9
07:15 1014 29.94 843 24.89 -15.4 4.3 86 -17.2 1
07:20 1014 29.94 843 24.89 -15.5 4.1 86 -17.3 0.8
07:25 1014 29.94 843 24.89 -15.5 4 86 -17.4 0.6
07:30 1014 29.94 843 24.89 -15.5 4.1 86 -17.4 0.7
07:35 1014 29.94 843 24.89 -15.5 4 86 -17.4 0.7
07:40 1014 29.94 843 24.89 -15.5 4.1 86 -17.3 0.8
07:45 1014 29.94 843 24.89 -15.5 4.1 86 -17.3 0.8
07:50 1014 29.94 843 24.89 -15.6 4 86 -17.4 0.8
07:55 1014 29.94 843 24.89 -15.5 4.1 87 -17.3 0.9
08:00 1014 29.94 843 24.89 -15.4 4.2 86 -17.2 1
08:05 1014 29.94 843 24.89 -15.4 4.2 86 -17.3 0.9
08:10 1014 29.94 844 24.92 -15.4 4.2 86 -17.3 0.9
08:15 1014 29.94 844 24.92 -15.4 4.2 86 -17.3 0.9
08:20 1014 29.94 844 24.92 -15.4 4.3 86 -17.2 1
08:25 1014 29.94 844 24.92 -15.4 4.3 87 -17.2 1.1
08:30 1015 29.97 844 24.92 -15.4 4.3 86 -17.2 1
08:35 1015 29.97 844 24.92 -15.5 4.1 86 -17.3 0.9
08:40 1015 29.97 844 24.92 -15.4 4.2 87 -17.2 1.1
08:45 1015 29.97 844 24.92 -15.5 4.2 86 -17.3 0.8
08:50 1015 29.97 844 24.92 -15.5 4 86 -17.4 0.7
08:55 1015 29.97 844 24.92 -15.6 3.9 86 -17.5 0.5
09:00 1015 29.97 844 24.92 -15.6 3.8 86 -17.4 0.6
09:05 1015 29.97 844 24.92 -15.6 3.9 86 -17.4 0.7
09:10 1015 29.97 844 24.92 -15.6 4 86 -17.4 0.7
09:15 1015 29.97 844 24.92 -15.5 4.1 86 -17.3 0.8
09:20 1015 29.97 844 24.92 -15.4 4.2 86 -17.2 1
09:25 1015 29.97 844 24.92 -15.3 4.4 86 -17.1 1.2
09:30 1015 29.97 844 24.92 -15.3 4.5 86 -17.1 1.2
09:35 1015 29.97 845 24.95 -15.2 4.6 86 -17 1.3
09:40 1015 29.97 845 24.95 -15.2 4.7 86 -17 1.3
09:45 1016 30 845 24.95 -15.2 4.7 86 -16.9 1.5
09:50 1016 30 845 24.95 -15.1 4.9 87 -16.8 1.7
09:55 1016 30 845 24.95 -15 5 86 -16.8 1.8
10:00 1016 30 845 24.95 -15 4.9 86 -16.9 1.6
10:05 1016 30 845 24.95 -15 5 86 -16.8 1.7
10:10 1016 30 845 24.95 -15 5 86 -16.9 1.7
10:15 1016 30 845 24.95 -15 4.9 86 -16.9 1.6
10:20 1016 30 845 24.95 -15 5 86 -16.8 1.7
10:25 1016 30 845 24.95 -14.9 5.1 86 -16.8 1.8
10:30 1016 30 845 24.95 -14.8 5.3 86 -16.8 1.8
10:35 1016 30 845 24.95 -14.9 5.3 86 -16.7 1.9
10:40 1016 30 845 24.95 -14.9 5.2 86 -16.7 1.9
10:45 1016 30 845 24.95 -14.8 5.3 86 -16.7 1.9
10:50 1016 30 845 24.95 -14.9 5.1 85 -16.9 1.5
10:55 1016 30 845 24.95 -15 5 86 -16.9 1.6
11:00 1016 30 845 24.95 -15 5 86 -16.9 1.6
11:05 1016 30 845 24.95 -14.9 5.1 85 -16.9 1.6
11:10 1016 30 845 24.95 -14.9 5.1 85 -16.9 1.6
11:15 1016 30 846 24.98 -14.8 5.4 86 -16.7 1.9
11:20 1016 30 846 24.98 -14.6 5.8 86 -16.5 2.3
11:25 1016 30 846 24.98 -14.5 6 86 -16.3 2.6
11:30 1016 30 846 24.98 -14.3 6.3 85 -16.3 2.7
11:35 1016 30 846 24.98 -14.4 6.2 85 -16.4 2.5
11:40 1016 30 846 24.98 -14.4 6 85 -16.4 2.4
11:45 1016 30 846 24.98 -14.5 5.9 85 -16.5 2.3
11:50 1016 30 846 24.98 -14.5 5.9 84 -16.6 2.1
11:55 1016 30 846 24.98 -14.6 5.8 85 -16.6 2.2
12:00 1016 30 846 24.98 -14.6 5.8 84 -16.7 1.9
12:05 1016 30 846 24.98 -14.7 5.6 84 -16.8 1.8
12:10 1016 30 846 24.98 -14.7 5.6 86 -16.6 2.1
12:15 1016 30 846 24.98 -14.6 5.8 84 -16.6 2
12:20 1016 30 846 24.98 -14.6 5.6 85 -16.7 2
12:25 1016 30 846 24.98 -14.6 5.7 84 -16.7 1.9
12:30 1016 30 845 24.95 -14.7 5.5 84 -16.8 1.7
12:35 1016 30 845 24.95 -14.7 5.5 85 -16.7 1.9
12:40 1016 30 845 24.95 -14.7 5.5 85 -16.6 2.1
12:45 1016 30 845 24.95 -14.6 5.7 85 -16.7 2
12:50 1016 30 845 24.95 -14.5 5.9 86 -16.4 2.5
12:55 1016 30 845 24.95 -14.2 6.4 86 -16 3.2
13:00 1016 30 845 24.95 -14 6.8 85 -16 3.1
13:05 1016 30 845 24.95 -14 6.8 85 -16 3.3
13:10 1016 30 845 24.95 -13.9 6.9 85 -15.9 3.4
13:15 1016 30 845 24.95 -13.9 6.9 85 -16 3.2
13:20 1016 30 845 24.95 -13.9 6.9 85 -16 3.3
13:25 1016 30 845 24.95 -14 6.7 84 -16.2 2.8
13:30 1016 30 845 24.95 -14.2 6.4 84 -16.4 2.5
13:35 1016 30 845 24.95 -14.4 6.1 85 -16.5 2.4
13:40 1016 30 845 24.95 -14.4 6.2 85 -16.4 2.5
13:45 1016 30 845 24.95 -14.5 6 85 -16.5 2.4
13:50 1016 30 845 24.95 -14.4 6 85 -16.5 2.4
13:55 1016 30 845 24.95 -14.4 6.1 85 -16.4 2.5
14:00 1016 30 845 24.95 -14.4 6.2 85 -16.4 2.6
14:05 1016 30 845 24.95 -14.4 6 85 -16.4 2.5
14:10 1016 30 845 24.95 -14.5 6 84 -16.5 2.2
14:15 1016 30 845 24.95 -14.4 6 85 -16.4 2.4
14:20 1016 30 845 24.95 -14.4 6.1 85 -16.4 2.4
14:25 1016 30 845 24.95 -14.4 6 84 -16.5 2.2
14:30 1016 30 845 24.95 -14.4 6.1 85 -16.4 2.4
14:35 1016 30 845 24.95 -14.4 6.2 84 -16.5 2.4
14:40 1016 30 845 24.95 -14.3 6.3 84 -16.4 2.4
14:45 1016 30 845 24.95 -14.2 6.4 84 -16.3 2.6
14:50 1016 30 845 24.95 -14.3 6.4 84 -16.5 2.4
14:55 1016 30 845 24.95 -14.4 6.1 83 -16.7 2
15:00 1016 30 845 24.95 -14.5 5.8 84 -16.6 2.1
15:05 1016 30 845 24.95 -14.4 6 84 -16.6 2.2
15:10 1016 30 845 24.95 -14.5 5.8 84 -16.7 2
15:15 1016 30 845 24.95 -14.6 5.8 84 -16.7 2
15:20 1016 30 845 24.95 -14.6 5.7 84 -16.7 1.9
15:25 1016 30 845 24.95 -14.7 5.5 85 -16.7 1.9
15:30 1016 30 845 24.95 -14.7 5.6 85 -16.6 2
15:35 1016 30 845 24.95 -14.6 5.8 85 -16.6 2.2
15:40 1016 30 845 24.95 -14.5 6 84 -16.6 2.2
15:45 1016 30 845 24.95 -14.4 6 84 -16.6 2.2
15:50 1016 30 845 24.95 -14.5 5.9 83 -16.8 1.8
15:55 1016 30 845 24.95 -14.6 5.8 85 -16.5 2.3
16:00 1016 30 845 24.95 -14.4 6.1 85 -16.4 2.5
16:05 1016 30 845 24.95 -14.4 6.1 85 -16.4 2.4
16:10 1016 30 845 24.95 -14.5 5.9 84 -16.7 2
16:15 1016 30 845 24.95 -14.7 5.6 83 -16.9 1.5
16:20 1016 30 845 24.95 -14.9 5.3 84 -17 1.4
16:25 1016 30 845 24.95 -15 5 84 -17.1 1.2
16:30 1016 30 845 24.95 -15 5.1 85 -16.9 1.5
16:35 1016 30 846 24.98 -15 5 85 -17 1.4
16:40 1016 30 846 24.98 -15 5 85 -17 1.5
16:45 1016 30 846 24.98 -15 5 84 -17.1 1.2
16:50 1016 30 846 24.98 -15.1 4.9 85 -17 1.3
16:55 1016 30 846 24.98 -15.1 4.8 84 -17.2 1.1
17:00 1016 30 846 24.98 -15.2 4.7 85 -17.2 1.1
17:05 1016 30 846 24.98 -15.2 4.6 85 -17.2 1
17:10 1016 30 846 24.98 -15.3 4.4 85 -17.3 0.8
17:15 1016 30 846 24.98 -15.3 4.4 85 -17.3 0.9
17:20 1016 30 846 24.98 -15.3 4.4 85 -17.3 0.9
17:25 1017 30.03 846 24.98 -15.4 4.2 85 -17.5 0.6
17:30 1017 30.03 846 24.98 -15.6 4 85 -17.6 0.3
17:35 1017 30.03 846 24.98 -15.7 3.8 85 -17.7 0.2
17:40 1017 30.03 846 24.98 -15.8 3.6 84 -17.8 -0.1
17:45 1017 30.03 846 24.98 -15.9 3.4 85 -17.9 -0.2
17:50 1017 30.03 846 24.98 -15.9 3.3 84 -18 -0.4
17:55 1017 30.03 846 24.98 -16 3.2 84 -18.1 -0.5
18:00 1017 30.03 846 24.98 -16.1 3.1 85 -18.1 -0.5
18:05 1017 30.03 846 24.98 -16.2 2.9 84 -18.3 -0.9
18:10 1017 30.03 846 24.98 -16.5 2.4 84 -18.5 -1.4
18:15 1017 30.03 846 24.98 -16.7 2 84 -18.7 -1.7
18:20 1017 30.03 846 24.98 -16.7 1.9 84 -18.7 -1.7
18:25 1017 30.03 846 24.98 -16.7 1.9 84 -18.9 -2
18:30 1017 30.03 846 24.98 -17.1 1.3 83 -19.2 -2.6
18:35 1017 30.03 846 24.98 -17.3 0.9 83 -19.5 -3
18:40 1017 30.03 846 24.98 -17.5 0.6 83 -19.6 -3.3
18:45 1017 30.03 846 24.98 -17.6 0.4 84 -19.6 -3.3
18:50 1017 30.03 846 24.98 -17.6 0.4 84 -19.7 -3.5
18:55 1017 30.03 846 24.98 -17.6 0.3 83 -19.8 -3.6
19:00 1017 30.03 846 24.98 -17.7 0.1 83 -19.9 -3.8
19:05 1017 30.03 847 25.01 -17.8 -0 84 -19.9 -3.9
19:10 1017 30.03 847 25.01 -17.8 -0 84 -19.9 -3.9
19:15 1017 30.03 847 25.01 -17.8 0.1 84 -19.9 -3.8
19:20 1017 30.03 846 24.98 -17.7 0.1 84 -19.8 -3.7
19:25 1017 30.03 846 24.98 -17.7 0.1 84 -19.8 -3.7
19:30 1017 30.03 846 24.98 -17.7 0.1 84 -19.8 -3.7
19:35 1017 30.03 847 25.01 -17.7 0.1 84 -19.8 -3.7
19:40 1017 30.03 847 25.01 -17.8 0 84 -19.9 -3.8
19:45 1017 30.03 847 25.01 -17.8 -0 84 -19.9 -3.8
19:50 1017 30.03 847 25.01 -17.8 0 84 -19.9 -3.8
19:55 1017 30.03 847 25.01 -17.8 -0 84 -19.9 -3.8
20:00 1017 30.03 847 25.01 -17.8 -0 84 -20 -3.9
20:05 1018 30.06 847 25.01 -17.9 -0.1 84 -20 -4
20:10 1018 30.06 847 25.01 -18 -0.3 83 -20.2 -4.3
20:15 1018 30.06 847 25.01 -18.1 -0.5 83 -20.3 -4.5
20:20 1018 30.06 847 25.01 -18 -0.5 84 -20.1 -4.3
20:25 1017 30.03 847 25.01 -18 -0.3 84 -20.1 -4.1
20:30 1018 30.06 847 25.01 -18 -0.3 84 -20.1 -4.2
20:35 1018 30.06 847 25.01 -18 -0.3 84 -20.1 -4.1
20:40 1018 30.06 847 25.01 -17.9 -0.3 84 -20.1 -4.1
20:45 1018 30.06 847 25.01 -17.9 -0.2 84 -20 -4
20:50 1018 30.06 847 25.01 -17.9 -0.2 84 -20.1 -4.1
20:55 1018 30.06 847 25.01 -17.9 -0.3 84 -20 -4
21:00 1018 30.06 847 25.01 -18 -0.4 83 -20.2 -4.3
21:05 1018 30.06 847 25.01 -18.1 -0.5 83 -20.2 -4.4
21:10 1018 30.06 847 25.01 -18.2 -0.8 83 -20.4 -4.7
21:15 1018 30.06 847 25.01 -18.3 -1 83 -20.6 -5
21:20 1018 30.06 847 25.01 -18.4 -1.1 83 -20.6 -5.2
21:25 1018 30.06 847 25.01 -18.5 -1.2 83 -20.6 -5.1
21:30 1018 30.06 847 25.01 -18.5 -1.2 83 -20.6 -5.2
21:35 1018 30.06 847 25.01 -18.5 -1.2 84 -20.6 -5
21:40 1018 30.06 847 25.01 -18.4 -1.2 83 -20.6 -5.1
21:45 1018 30.06 847 25.01 -18.4 -1.1 83 -20.6 -5.1
21:50 1018 30.06 847 25.01 -18.4 -1.2 83 -20.6 -5.2
21:55 1018 30.06 847 25.01 -18.4 -1.2 83 -20.7 -5.2
22:00 1018 30.06 847 25.01 -18.4 -1.2 83 -20.6 -5.1
22:05 1018 30.06 847 25.01 -18.4 -1.2 83 -20.7 -5.3
22:10 1018 30.06 847 25.01 -18.5 -1.3 83 -20.7 -5.3
22:15 1018 30.06 847 25.01 -18.5 -1.3 83 -20.8 -5.4
22:20 1018 30.06 847 25.01 -18.5 -1.3 83 -20.8 -5.4
22:25 1018 30.06 847 25.01 -18.5 -1.3 83 -20.7 -5.3
22:30 1018 30.06 847 25.01 -18.4 -1.2 83 -20.7 -5.2
22:35 1018 30.06 847 25.01 -18.4 -1.2 83 -20.7 -5.2
22:40 1018 30.06 847 25.01 -18.5 -1.2 83 -20.7 -5.3
22:45 1018 30.06 847 25.01 -18.5 -1.3 83 -20.7 -5.2
22:50 1018 30.06 847 25.01 -18.5 -1.3 83 -20.7 -5.3
22:55 1018 30.06 847 25.01 -18.4 -1.2 83 -20.7 -5.2
23:00 1018 30.06 847 25.01 -18.4 -1.2 83 -20.7 -5.2
23:05 1018 30.06 847 25.01 -18.4 -1.2 83 -20.7 -5.3
23:10 1018 30.06 847 25.01 -18.4 -1.2 83 -20.7 -5.3
23:15 1018 30.06 847 25.01 -18.5 -1.2 83 -20.7 -5.3
23:20 1018 30.06 847 25.01 -18.5 -1.2 83 -20.7 -5.3
23:25 1018 30.06 847 25.01 -18.5 -1.2 83 -20.7 -5.3
23:30 1018 30.06 847 25.01 -18.5 -1.3 83 -20.8 -5.4
23:35 1018 30.06 847 25.01 -18.5 -1.3 83 -20.8 -5.4
23:40 1018 30.06 847 25.01 -18.6 -1.4 82 -20.9 -5.6
23:45 1018 30.06 847 25.01 -18.6 -1.5 82 -20.9 -5.7
23:50 1018 30.06 847 25.01 -18.6 -1.5 83 -20.9 -5.6
23:55 1018 30.06 847 25.01 -18.6 -1.5 82 -21 -5.7
24:00 1018 30.06 847 25.01 -18.7 -1.6 82 -21 -5.8